createdAt,value
2018-06-10T00:01:08.098Z,15.00
2018-06-10T00:03:35.577Z,14.63
2018-06-10T00:06:03.269Z,13.50
2018-06-10T00:08:30.839Z,17.87
2018-06-10T00:10:58.451Z,16.87
2018-06-10T00:13:26.034Z,18.50
2018-06-10T00:15:53.519Z,19.50
2018-06-10T00:18:20.980Z,15.00
2018-06-10T00:20:48.581Z,15.43
2018-06-10T00:23:16.067Z,15.77
2018-06-10T00:25:43.722Z,20.67
2018-06-10T00:28:11.358Z,19.03
2018-06-10T00:30:38.944Z,18.50
2018-06-10T00:33:06.542Z,18.00
2018-06-10T00:35:34.163Z,17.93
2018-06-10T00:38:01.664Z,16.83
2018-06-10T00:40:29.164Z,14.07
2018-06-10T00:42:56.681Z,18.27
2018-06-10T00:45:24.233Z,15.40
2018-06-10T00:47:51.836Z,17.47
2018-06-10T00:50:19.303Z,15.67
2018-06-10T00:52:46.831Z,14.90
2018-06-10T00:55:14.277Z,16.37
2018-06-10T00:57:42.018Z,14.93
2018-06-10T01:00:09.598Z,17.00
2018-06-10T01:02:37.268Z,18.37
2018-06-10T01:05:04.894Z,17.50
2018-06-10T01:07:32.403Z,14.73
2018-06-10T01:09:59.974Z,17.27
2018-06-10T01:12:27.605Z,15.23
2018-06-10T01:14:55.073Z,15.63
2018-06-10T01:17:22.623Z,14.07
2018-06-10T01:19:50.304Z,14.27
2018-06-10T01:22:17.904Z,14.33
2018-06-10T01:24:45.413Z,18.97
2018-06-10T01:27:13.009Z,16.73
2018-06-10T01:29:40.621Z,16.67
2018-06-10T01:32:08.091Z,21.03
2018-06-10T01:34:35.722Z,14.93
2018-06-10T01:37:03.312Z,22.13
2018-06-10T01:39:30.837Z,16.93
2018-06-10T01:41:58.423Z,16.60
2018-06-10T01:44:26.029Z,16.33
2018-06-10T01:46:53.583Z,15.33
2018-06-10T01:49:21.218Z,16.20
2018-06-10T01:51:48.795Z,15.80
2018-06-10T01:54:16.288Z,17.13
2018-06-10T01:56:43.872Z,17.53
2018-06-10T01:59:11.471Z,18.83
2018-06-10T02:01:39.057Z,18.73
2018-06-10T02:04:06.695Z,13.90
2018-06-10T02:06:34.211Z,15.67
2018-06-10T02:09:01.922Z,14.83
2018-06-10T02:11:29.593Z,20.30
2018-06-10T02:13:57.056Z,12.87
2018-06-10T02:16:24.551Z,16.87
2018-06-10T02:18:52.032Z,18.63
2018-06-10T02:21:19.639Z,15.30
2018-06-10T02:23:47.240Z,18.00
2018-06-10T02:26:14.847Z,21.30
2018-06-10T02:28:42.422Z,17.57
2018-06-10T02:31:09.914Z,23.30
2018-06-10T02:33:37.383Z,15.17
2018-06-10T02:36:05.020Z,18.63
2018-06-10T02:38:32.600Z,20.27
2018-06-10T02:41:00.127Z,23.37
2018-06-10T02:43:27.668Z,18.80
2018-06-10T02:45:55.283Z,17.57
2018-06-10T02:48:22.804Z,22.00
2018-06-10T02:50:50.425Z,23.03
2018-06-10T02:53:18.068Z,22.07
2018-06-10T02:55:45.661Z,21.07
2018-06-10T02:58:13.299Z,23.03
2018-06-10T03:00:40.905Z,22.77
2018-06-10T03:03:08.418Z,21.80
2018-06-10T03:05:36.013Z,22.13
2018-06-10T03:08:03.708Z,25.77
2018-06-10T03:10:31.290Z,26.60
2018-06-10T03:12:58.896Z,31.57
2018-06-10T03:15:26.380Z,24.27
2018-06-10T03:17:54.033Z,26.40
2018-06-10T03:20:21.623Z,26.90
2018-06-10T03:22:49.212Z,25.20
2018-06-10T03:25:16.827Z,20.53
2018-06-10T03:27:53.783Z,22.40
2018-06-10T03:30:21.403Z,23.23
2018-06-10T03:32:48.978Z,18.73
2018-06-10T03:35:16.465Z,19.50
2018-06-10T03:37:44.078Z,25.07
2018-06-10T03:40:11.638Z,25.03
2018-06-10T03:42:39.208Z,19.90
2018-06-10T03:45:06.803Z,21.40
2018-06-10T03:47:34.283Z,21.23
2018-06-10T03:50:01.939Z,25.30
2018-06-10T03:52:29.461Z,27.73
2018-06-10T03:54:57.077Z,25.27
2018-06-10T03:57:24.724Z,21.07
2018-06-10T03:59:52.319Z,24.23
2018-06-10T04:02:20.136Z,19.33
2018-06-10T04:04:47.728Z,17.90
2018-06-10T04:07:15.353Z,15.93
2018-06-10T04:09:43.001Z,20.23
2018-06-10T04:12:10.629Z,16.70
2018-06-10T04:14:38.230Z,18.23
2018-06-10T04:17:05.835Z,19.07
2018-06-10T04:19:33.307Z,17.47
2018-06-10T04:22:00.917Z,21.03
2018-06-10T04:24:28.527Z,22.67
2018-06-10T04:26:56.123Z,24.00
2018-06-10T04:29:23.639Z,17.97
2018-06-10T04:31:51.148Z,17.93
2018-06-10T04:34:18.780Z,16.40
2018-06-10T04:36:46.408Z,13.97
2018-06-10T04:39:13.902Z,16.47
2018-06-10T04:41:41.459Z,17.27
2018-06-10T04:44:08.964Z,14.83
2018-06-10T04:46:36.620Z,17.40
2018-06-10T04:49:04.300Z,18.93
2018-06-10T04:51:31.925Z,16.30
2018-06-10T04:53:59.421Z,16.73
2018-06-10T04:56:27.045Z,17.53
2018-06-10T04:58:54.590Z,19.17
2018-06-10T05:01:22.190Z,17.73
2018-06-10T05:03:49.824Z,17.70
2018-06-10T05:06:17.399Z,20.27
2018-06-10T05:08:44.995Z,16.97
2018-06-10T05:11:12.623Z,17.70
2018-06-10T05:13:40.143Z,20.23
2018-06-10T05:16:07.780Z,21.33
2018-06-10T05:18:35.460Z,17.73
2018-06-10T05:21:02.940Z,19.93
2018-06-10T05:23:30.565Z,18.97
2018-06-10T05:25:58.069Z,18.77
2018-06-10T05:28:25.743Z,22.37
2018-06-10T05:30:53.374Z,23.67
2018-06-10T05:33:20.997Z,20.27
2018-06-10T05:35:48.683Z,20.23
2018-06-10T05:38:16.271Z,14.00
2018-06-10T05:40:43.800Z,23.07
2018-06-10T05:43:11.420Z,22.17
2018-06-10T05:45:39.029Z,22.67
2018-06-10T05:48:06.644Z,22.70
2018-06-10T05:50:34.239Z,25.27
2018-06-10T05:53:01.911Z,23.57
2018-06-10T05:55:29.539Z,28.80
2018-06-10T05:57:57.151Z,26.00
2018-06-10T06:00:24.775Z,24.90
2018-06-10T06:02:52.400Z,26.83
2018-06-10T06:05:20.041Z,28.10
2018-06-10T06:07:47.617Z,33.93
2018-06-10T06:10:15.243Z,31.87
2018-06-10T06:12:42.858Z,30.17
2018-06-10T06:15:10.457Z,31.67
2018-06-10T06:17:37.961Z,29.90
2018-06-10T06:20:06.242Z,29.80
2018-06-10T06:22:33.794Z,29.37
2018-06-10T06:25:01.448Z,26.50
2018-06-10T06:27:29.124Z,24.90
2018-06-10T06:29:56.799Z,23.13
2018-06-10T06:32:24.307Z,21.63
2018-06-10T06:34:51.934Z,20.53
2018-06-10T06:37:19.560Z,22.17
2018-06-10T06:39:47.220Z,22.20
2018-06-10T06:42:14.871Z,20.07
2018-06-10T06:44:42.431Z,20.50
2018-06-10T06:47:09.948Z,20.20
2018-06-10T06:49:37.521Z,19.27
2018-06-10T06:52:05.296Z,18.53
2018-06-10T06:54:33.045Z,18.77
2018-06-10T06:57:00.697Z,18.27
2018-06-10T06:59:28.395Z,15.83
2018-06-10T07:01:55.951Z,15.37
2018-06-10T07:04:23.556Z,15.87
2018-06-10T07:06:51.059Z,13.87
2018-06-10T07:09:18.680Z,15.13
2018-06-10T07:11:46.191Z,15.40
2018-06-10T07:14:13.695Z,15.40
2018-06-10T07:16:41.286Z,14.70
2018-06-10T07:19:08.881Z,15.23
2018-06-10T07:21:36.455Z,14.77
2018-06-10T07:24:04.000Z,16.13
2018-06-10T07:26:31.591Z,14.80
2018-06-10T07:28:59.092Z,16.57
2018-06-10T07:31:26.715Z,15.00
2018-06-10T07:33:54.339Z,14.10
2018-06-10T07:36:21.980Z,14.80
2018-06-10T07:38:49.563Z,12.83
2018-06-10T07:41:18.000Z,13.03
2018-06-10T07:43:45.600Z,12.17
2018-06-10T07:46:13.182Z,11.10
2018-06-10T07:48:40.672Z,12.10
2018-06-10T07:51:08.239Z,12.20
2018-06-10T07:53:35.867Z,10.50
2018-06-10T07:56:03.455Z,13.73
2018-06-10T07:58:31.035Z,11.87
2018-06-10T08:00:58.674Z,12.50
2018-06-10T08:03:26.270Z,10.83
2018-06-10T08:05:53.921Z,12.00
2018-06-10T08:08:21.365Z,11.60
2018-06-10T08:10:49.022Z,10.50
2018-06-10T08:13:16.500Z,11.73
2018-06-10T08:15:44.142Z,11.33
2018-06-10T08:18:11.591Z,11.70
2018-06-10T08:20:39.275Z,16.90
2018-06-10T08:23:06.749Z,11.97
2018-06-10T08:25:34.287Z,10.43
2018-06-10T08:28:01.937Z,10.87
2018-06-10T08:30:29.682Z,13.90
2018-06-10T08:32:57.261Z,14.13
2018-06-10T08:35:24.905Z,14.10
2018-06-10T08:37:52.451Z,13.83
2018-06-10T08:40:20.091Z,13.50
2018-06-10T08:42:47.584Z,13.43
2018-06-10T08:45:15.232Z,11.30
2018-06-10T08:47:42.696Z,9.43
2018-06-10T08:50:10.330Z,10.50
2018-06-10T08:52:37.857Z,9.47
2018-06-10T08:55:05.375Z,11.73
2018-06-10T08:57:33.131Z,10.10
2018-06-10T09:00:00.724Z,10.57
2018-06-10T09:02:28.421Z,9.10
2018-06-10T09:04:56.066Z,8.97
2018-06-10T09:07:24.456Z,10.53
2018-06-10T09:09:51.921Z,8.43
2018-06-10T09:12:19.480Z,8.57
2018-06-10T09:14:47.119Z,8.37
2018-06-10T09:17:14.615Z,9.73
2018-06-10T09:19:42.269Z,9.90
2018-06-10T09:22:09.866Z,10.13
2018-06-10T09:24:37.447Z,9.37
2018-06-10T09:27:04.931Z,10.07
2018-06-10T09:29:33.766Z,11.23
2018-06-10T09:32:01.292Z,11.73
2018-06-10T09:34:28.906Z,9.90
2018-06-10T09:36:56.372Z,9.93
2018-06-10T09:39:23.984Z,8.90
2018-06-10T09:41:51.481Z,11.80
2018-06-10T09:44:18.955Z,11.43
2018-06-10T09:46:46.551Z,8.73
2018-06-10T09:49:14.218Z,7.90
2018-06-10T09:51:41.824Z,10.07
2018-06-10T09:54:09.443Z,10.90
2018-06-10T09:56:36.971Z,9.50
2018-06-10T09:59:04.539Z,9.17
2018-06-10T10:01:32.072Z,8.40
2018-06-10T10:03:59.678Z,11.23
2018-06-10T10:06:27.408Z,7.87
2018-06-10T10:08:55.087Z,10.07
2018-06-10T10:11:22.719Z,6.47
2018-06-10T10:13:50.382Z,7.63
2018-06-10T10:16:18.028Z,7.60
2018-06-10T10:18:45.505Z,6.63
2018-06-10T10:21:12.995Z,8.23
2018-06-10T10:23:40.541Z,7.73
2018-06-10T10:26:08.032Z,8.67
2018-06-10T10:28:35.592Z,8.73
2018-06-10T10:31:03.161Z,8.33
2018-06-10T10:33:30.725Z,9.30
2018-06-10T10:35:58.397Z,6.63
2018-06-10T10:38:26.036Z,5.70
2018-06-10T10:40:53.625Z,6.73
2018-06-10T10:43:21.209Z,5.97
2018-06-10T10:45:48.816Z,8.00
2018-06-10T10:48:16.311Z,9.57
2018-06-10T10:50:43.831Z,7.47
2018-06-10T10:53:11.307Z,7.20
2018-06-10T10:55:38.757Z,8.17
2018-06-10T10:58:06.361Z,7.70
2018-06-10T11:00:33.926Z,7.77
2018-06-10T11:03:01.525Z,6.92
2018-06-10T11:05:29.157Z,10.23
2018-06-10T11:07:56.794Z,7.03
2018-06-10T11:10:24.418Z,7.07
2018-06-10T11:12:52.024Z,7.63
2018-06-10T11:15:19.558Z,6.87
2018-06-10T11:17:47.141Z,6.63
2018-06-10T11:20:14.771Z,8.53
2018-06-10T11:22:42.347Z,7.47
2018-06-10T11:25:09.869Z,7.40
2018-06-10T11:27:37.371Z,6.90
2018-06-10T11:30:04.956Z,7.90
2018-06-10T11:32:32.577Z,6.73
2018-06-10T11:35:00.216Z,6.93
2018-06-10T11:37:27.862Z,7.17
2018-06-10T11:39:55.427Z,6.00
2018-06-10T11:42:23.093Z,6.40
2018-06-10T11:44:50.539Z,5.20
2018-06-10T11:47:18.176Z,5.90
2018-06-10T11:49:45.751Z,5.83
2018-06-10T11:52:13.458Z,9.13
2018-06-10T11:54:40.917Z,6.40
2018-06-10T11:57:08.577Z,5.57
2018-06-10T11:59:36.237Z,5.97
2018-06-10T12:02:03.911Z,7.20
2018-06-10T12:04:31.456Z,5.90
2018-06-10T12:06:59.062Z,4.73
2018-06-10T12:09:26.575Z,4.77
2018-06-10T12:11:54.286Z,5.67
2018-06-10T12:14:21.876Z,5.30
2018-06-10T12:16:49.456Z,5.47
2018-06-10T12:19:17.030Z,5.13
2018-06-10T12:21:44.700Z,5.83
2018-06-10T12:24:12.272Z,5.73
2018-06-10T12:26:39.880Z,5.15
2018-06-10T12:29:07.556Z,6.00
2018-06-10T12:31:35.151Z,5.87
2018-06-10T12:34:02.793Z,5.67
2018-06-10T12:36:30.431Z,5.50
2018-06-10T12:38:58.081Z,5.97
2018-06-10T12:41:25.677Z,5.87
2018-06-10T12:43:53.150Z,5.37
2018-06-10T12:46:20.851Z,8.07
2018-06-10T12:48:48.592Z,5.07
2018-06-10T12:51:16.107Z,5.37
2018-06-10T12:53:43.650Z,4.50
2018-06-10T12:56:11.163Z,5.93
2018-06-10T12:58:38.790Z,4.85
2018-06-10T13:01:06.368Z,4.70
2018-06-10T13:03:33.962Z,4.80
2018-06-10T13:06:01.522Z,6.47
2018-06-10T13:08:29.121Z,7.00
2018-06-10T13:10:56.736Z,7.30
2018-06-10T13:13:24.288Z,6.90
2018-06-10T13:15:51.919Z,8.97
2018-06-10T13:18:19.408Z,7.67
2018-06-10T13:20:47.019Z,7.17
2018-06-10T13:23:14.619Z,8.65
2018-06-10T13:25:42.254Z,8.13
2018-06-10T13:28:09.858Z,8.40
2018-06-10T13:30:37.492Z,7.33
2018-06-10T13:33:05.106Z,8.33
2018-06-10T13:35:32.722Z,8.80
2018-06-10T13:38:00.310Z,7.75
2018-06-10T13:40:27.964Z,7.17
2018-06-10T13:42:55.584Z,8.38
2018-06-10T13:45:23.202Z,7.92
2018-06-10T13:47:50.824Z,7.20
2018-06-10T13:50:18.496Z,7.53
2018-06-10T13:52:46.023Z,8.17
2018-06-10T13:55:13.612Z,7.67
2018-06-10T13:57:41.213Z,6.20
2018-06-10T14:00:08.727Z,6.17
2018-06-10T14:02:36.287Z,6.40
2018-06-10T14:05:03.958Z,5.55
2018-06-10T14:07:31.688Z,7.45
2018-06-10T14:09:59.307Z,6.67
2018-06-10T14:12:27.301Z,5.05
2018-06-10T14:14:54.929Z,5.60
2018-06-10T14:17:22.473Z,5.17
2018-06-10T14:19:50.094Z,5.50
2018-06-10T14:22:17.603Z,4.97
2018-06-10T14:24:45.267Z,5.83
2018-06-10T14:27:13.770Z,5.47
2018-06-10T14:29:41.435Z,5.17
2018-06-10T14:32:09.060Z,5.10
2018-06-10T14:34:36.813Z,4.97
2018-06-10T14:37:04.340Z,5.07
2018-06-10T14:39:32.624Z,4.80
2018-06-10T14:42:00.113Z,5.30
2018-06-10T14:44:27.827Z,21.50
2018-06-10T14:46:55.433Z,8.30
2018-06-10T14:49:23.212Z,5.87
2018-06-10T14:51:50.854Z,4.73
2018-06-10T14:54:18.521Z,5.20
2018-06-10T14:56:46.162Z,4.90
2018-06-10T14:59:13.853Z,5.47
2018-06-10T15:01:41.455Z,4.37
2018-06-10T15:04:09.018Z,4.77
2018-06-10T15:06:36.670Z,8.97
2018-06-10T15:09:06.905Z,5.97
2018-06-10T15:11:34.410Z,8.37
2018-06-10T15:14:02.156Z,9.33
2018-06-10T15:16:29.643Z,6.90
2018-06-10T15:18:57.284Z,8.80
2018-06-10T15:21:24.888Z,8.40
2018-06-10T15:23:52.374Z,9.43
2018-06-10T15:26:20.002Z,7.87
2018-06-10T15:28:47.527Z,7.93
2018-06-10T15:31:15.167Z,7.33
2018-06-10T15:33:42.816Z,13.00
2018-06-10T15:36:10.393Z,10.73
2018-06-10T15:38:37.988Z,15.33
2018-06-10T15:41:05.589Z,15.47
2018-06-10T15:43:33.058Z,10.37
2018-06-10T15:46:00.581Z,10.40
2018-06-10T15:48:28.185Z,8.13
2018-06-10T15:50:55.764Z,6.53
2018-06-10T15:53:23.344Z,8.00
2018-06-10T15:55:51.152Z,6.40
2018-06-10T15:58:18.754Z,7.13
2018-06-10T16:00:46.400Z,8.33
2018-06-10T16:03:14.048Z,7.30
2018-06-10T16:05:41.735Z,7.00
2018-06-10T16:08:09.470Z,9.47
2018-06-10T16:10:37.047Z,6.93
2018-06-10T16:13:04.859Z,7.20
2018-06-10T16:15:32.393Z,8.60
2018-06-10T16:18:00.046Z,7.00
2018-06-10T16:20:27.704Z,8.23
2018-06-10T16:22:55.353Z,7.63
2018-06-10T16:25:22.940Z,6.83
2018-06-10T16:27:50.534Z,7.43
2018-06-10T16:30:18.135Z,7.37
2018-06-10T16:32:45.816Z,9.33
2018-06-10T16:35:14.499Z,10.10
2018-06-10T16:37:42.253Z,10.00
2018-06-10T16:40:10.511Z,9.80
2018-06-10T16:42:38.804Z,6.60
2018-06-10T16:45:07.614Z,7.57
2018-06-10T16:47:35.502Z,9.07
2018-06-10T16:50:03.383Z,9.43
2018-06-10T16:52:32.280Z,11.83
2018-06-10T16:55:00.121Z,7.90
2018-06-10T16:57:27.665Z,9.50
2018-06-10T17:00:00.473Z,8.87
2018-06-10T17:02:30.265Z,9.90
2018-06-10T17:05:01.138Z,12.07
2018-06-10T17:07:32.035Z,9.50
2018-06-10T17:10:02.018Z,8.60
2018-06-10T17:12:31.643Z,9.83
2018-06-10T17:15:01.880Z,10.03
2018-06-10T17:17:29.488Z,10.93
2018-06-10T17:19:57.150Z,12.27
2018-06-10T17:22:24.800Z,12.63
2018-06-10T17:24:52.311Z,13.63
2018-06-10T17:27:20.049Z,11.53
2018-06-10T17:29:47.689Z,10.60
2018-06-10T17:32:15.353Z,11.67
2018-06-10T17:34:43.673Z,11.63
2018-06-10T17:37:11.373Z,8.77
2018-06-10T17:39:39.000Z,9.70
2018-06-10T17:42:06.561Z,12.03
2018-06-10T17:44:34.236Z,15.03
2018-06-10T17:47:02.079Z,12.80
2018-06-10T17:49:29.694Z,12.30
2018-06-10T17:51:57.174Z,10.47
2018-06-10T17:54:24.724Z,10.97
2018-06-10T17:56:52.293Z,13.37
2018-06-10T17:59:20.025Z,8.20
2018-06-10T18:01:47.583Z,8.27
2018-06-10T18:04:15.074Z,11.50
2018-06-10T18:06:42.788Z,11.17
2018-06-10T18:09:10.545Z,10.03
2018-06-10T18:11:38.234Z,12.63
2018-06-10T18:14:05.896Z,9.23
2018-06-10T18:16:33.608Z,11.70
2018-06-10T18:19:01.325Z,10.53
2018-06-10T18:21:28.928Z,12.03
2018-06-10T18:23:56.609Z,7.90
2018-06-10T18:26:24.291Z,8.63
2018-06-10T18:28:51.888Z,11.23
2018-06-10T18:31:19.553Z,10.17
2018-06-10T18:33:47.154Z,10.67
2018-06-10T18:36:14.936Z,12.13
2018-06-10T18:38:43.405Z,10.80
2018-06-10T18:41:10.958Z,8.50
2018-06-10T18:43:38.551Z,10.17
2018-06-10T18:46:06.278Z,8.60
2018-06-10T18:48:33.864Z,9.07
2018-06-10T18:51:01.519Z,17.97
2018-06-10T18:53:29.015Z,12.17
2018-06-10T18:55:56.694Z,10.00
2018-06-10T18:58:24.252Z,9.83
2018-06-10T19:00:51.849Z,9.70
2018-06-10T19:03:19.533Z,10.30
2018-06-10T19:05:47.140Z,12.07
2018-06-10T19:08:14.670Z,12.90
2018-06-10T19:10:44.804Z,11.00
2018-06-10T19:13:14.903Z,10.30
2018-06-10T19:15:42.580Z,13.33
2018-06-10T19:18:10.263Z,12.83
2018-06-10T19:20:37.824Z,9.97
2018-06-10T19:23:05.535Z,11.47
2018-06-10T19:25:33.145Z,11.93
2018-06-10T19:28:00.879Z,10.23
2018-06-10T19:30:28.579Z,9.67
2018-06-10T19:32:56.150Z,9.13
2018-06-10T19:35:23.947Z,8.70
2018-06-10T19:37:51.559Z,10.00
2018-06-10T19:40:19.276Z,11.77
2018-06-10T19:42:46.824Z,10.07
2018-06-10T19:45:14.369Z,9.03
2018-06-10T19:47:42.255Z,10.67
2018-06-10T19:50:09.991Z,9.00
2018-06-10T19:52:37.680Z,9.73
2018-06-10T19:55:05.445Z,10.13
2018-06-10T19:57:33.155Z,10.03
2018-06-10T20:00:00.715Z,11.53
2018-06-10T20:02:28.419Z,9.73
2018-06-10T20:04:56.114Z,10.53
2018-06-10T20:07:23.710Z,9.00
2018-06-10T20:09:51.269Z,11.00
2018-06-10T20:12:18.794Z,10.73
2018-06-10T20:14:46.320Z,9.57
2018-06-10T20:17:13.942Z,9.90
2018-06-10T20:19:41.583Z,9.50
2018-06-10T20:22:09.196Z,9.23
2018-06-10T20:24:36.873Z,8.53
2018-06-10T20:27:04.609Z,8.83
2018-06-10T20:29:32.254Z,9.23
2018-06-10T20:31:59.783Z,9.37
2018-06-10T20:34:27.328Z,10.33
2018-06-10T20:36:54.873Z,8.77
2018-06-10T20:39:22.488Z,10.70
2018-06-10T20:41:50.029Z,9.80
2018-06-10T20:44:18.160Z,8.70
2018-06-10T20:46:46.464Z,9.33
2018-06-10T20:49:15.013Z,10.63
2018-06-10T20:51:42.661Z,10.20
2018-06-10T20:54:10.420Z,10.27
2018-06-10T20:56:39.473Z,9.50
2018-06-10T20:59:07.160Z,7.87
2018-06-10T21:01:35.104Z,9.47
2018-06-10T21:04:02.804Z,9.67
2018-06-10T21:06:31.591Z,12.23
2018-06-10T21:08:59.260Z,9.00
2018-06-10T21:11:27.213Z,8.77
2018-06-10T21:13:56.066Z,8.23
2018-06-10T21:16:23.740Z,10.80
2018-06-10T21:18:51.931Z,8.33
2018-06-10T21:21:19.471Z,10.93
2018-06-10T21:23:47.308Z,12.80
2018-06-10T21:26:14.951Z,13.10
2018-06-10T21:28:42.565Z,10.03
2018-06-10T21:31:10.181Z,12.07
2018-06-10T21:33:37.695Z,12.47
2018-06-10T21:36:05.263Z,9.37
2018-06-10T21:38:32.744Z,12.20
2018-06-10T21:41:00.384Z,12.70
2018-06-10T21:43:27.991Z,15.13
2018-06-10T21:45:55.592Z,10.97
2018-06-10T21:48:23.235Z,14.37
2018-06-10T21:50:50.866Z,13.90
2018-06-10T21:53:18.541Z,14.23
2018-06-10T21:55:46.045Z,12.87
2018-06-10T21:58:13.693Z,12.90
2018-06-10T22:00:41.419Z,11.87
2018-06-10T22:03:09.040Z,9.07
2018-06-10T22:05:36.701Z,14.53
2018-06-10T22:08:04.381Z,10.97
2018-06-10T22:10:31.889Z,10.13
2018-06-10T22:12:59.830Z,9.07
2018-06-10T22:15:27.528Z,9.00
2018-06-10T22:17:55.199Z,11.43
2018-06-10T22:20:22.643Z,10.53
2018-06-10T22:22:50.296Z,12.23
2018-06-10T22:25:17.920Z,10.20
2018-06-10T22:27:45.543Z,9.87
2018-06-10T22:30:13.014Z,10.27
2018-06-10T22:32:40.664Z,10.93
2018-06-10T22:35:08.259Z,13.73
2018-06-10T22:37:35.883Z,11.63
2018-06-10T22:40:03.564Z,10.10
2018-06-10T22:42:31.181Z,11.23
2018-06-10T22:44:58.716Z,10.60
2018-06-10T22:47:26.369Z,14.67
2018-06-10T22:49:54.009Z,9.70
2018-06-10T22:52:21.523Z,11.87
2018-06-10T22:54:49.023Z,10.47
2018-06-10T22:57:16.684Z,14.07
2018-06-10T22:59:44.296Z,10.27
2018-06-10T23:02:11.832Z,10.07
2018-06-10T23:04:39.420Z,12.03
2018-06-10T23:07:07.046Z,12.97
2018-06-10T23:09:34.734Z,10.17
2018-06-10T23:12:02.214Z,8.87
2018-06-10T23:14:29.855Z,11.37
2018-06-10T23:16:57.441Z,9.40
2018-06-10T23:19:24.947Z,11.43
2018-06-10T23:21:52.544Z,10.10
2018-06-10T23:24:20.290Z,15.93
2018-06-10T23:26:47.800Z,9.33
2018-06-10T23:29:15.316Z,10.63
2018-06-10T23:31:42.921Z,9.77
2018-06-10T23:34:10.541Z,9.83
2018-06-10T23:36:38.117Z,9.63
2018-06-10T23:39:06.485Z,9.27
2018-06-10T23:41:34.055Z,7.03
2018-06-10T23:44:01.675Z,6.83
2018-06-10T23:46:29.175Z,8.10
2018-06-10T23:48:56.780Z,8.37
2018-06-10T23:51:24.519Z,8.97
2018-06-10T23:53:52.129Z,15.57
2018-06-10T23:56:19.784Z,11.47
2018-06-10T23:58:47.373Z,9.53
